sensor_id;sensor_type;location;lat;lon;timestamp;temperature;humidity
13123;DHT22;6627;50.920;12.050;2024-02-23T00:01:50;12.00;99.90
13123;DHT22;6627;50.920;12.050;2024-02-23T00:04:20;11.90;99.90
13123;DHT22;6627;50.920;12.050;2024-02-23T00:06:47;11.90;99.90
13123;DHT22;6627;50.920;12.050;2024-02-23T00:09:15;11.90;99.90
13123;DHT22;6627;50.920;12.050;2024-02-23T00:11:43;11.90;99.90
13123;DHT22;6627;50.920;12.050;2024-02-23T00:14:10;11.80;99.90
13123;DHT22;6627;50.920;12.050;2024-02-23T00:16:59;11.80;99.90
13123;DHT22;6627;50.920;12.050;2024-02-23T00:19:30;11.70;99.90
13123;DHT22;6627;50.920;12.050;2024-02-23T00:22:00;11.70;99.90
13123;DHT22;6627;50.920;12.050;2024-02-23T00:24:29;11.70;99.90
13123;DHT22;6627;50.920;12.050;2024-02-23T00:26:59;11.70;99.90
13123;DHT22;6627;50.920;12.050;2024-02-23T00:34:40;11.50;99.90
13123;DHT22;6627;50.920;12.050;2024-02-23T00:37:07;11.60;99.90
13123;DHT22;6627;50.920;12.050;2024-02-23T00:39:37;11.50;99.90
13123;DHT22;6627;50.920;12.050;2024-02-23T00:42:07;11.50;99.90
13123;DHT22;6627;50.920;12.050;2024-02-23T00:44:37;11.40;99.90
13123;DHT22;6627;50.920;12.050;2024-02-23T00:47:05;11.40;99.90
13123;DHT22;6627;50.920;12.050;2024-02-23T00:49:32;11.40;99.90
13123;DHT22;6627;50.920;12.050;2024-02-23T00:52:01;11.40;99.90
13123;DHT22;6627;50.920;12.050;2024-02-23T00:54:28;11.40;99.90
13123;DHT22;6627;50.920;12.050;2024-02-23T00:59:39;11.30;99.90
13123;DHT22;6627;50.920;12.050;2024-02-23T01:02:09;11.40;99.90
13123;DHT22;6627;50.920;12.050;2024-02-23T01:04:39;11.40;99.90
13123;DHT22;6627;50.920;12.050;2024-02-23T01:07:09;11.40;99.90
13123;DHT22;6627;50.920;12.050;2024-02-23T01:09:39;11.40;99.90
13123;DHT22;6627;50.920;12.050;2024-02-23T01:12:06;11.40;99.90
13123;DHT22;6627;50.920;12.050;2024-02-23T01:14:33;11.40;99.90
13123;DHT22;6627;50.920;12.050;2024-02-23T01:19:28;11.40;99.90
13123;DHT22;6627;50.920;12.050;2024-02-23T01:21:56;11.30;99.90
13123;DHT22;6627;50.920;12.050;2024-02-23T01:24:29;11.30;99.90
13123;DHT22;6627;50.920;12.050;2024-02-23T01:26:58;11.20;99.90
13123;DHT22;6627;50.920;12.050;2024-02-23T01:31:56;11.20;99.90
13123;DHT22;6627;50.920;12.050;2024-02-23T01:34:23;11.10;99.90
13123;DHT22;6627;50.920;12.050;2024-02-23T01:41:47;11.00;99.90
13123;DHT22;6627;50.920;12.050;2024-02-23T01:44:17;10.90;99.90
13123;DHT22;6627;50.920;12.050;2024-02-23T01:49:20;10.80;99.90
13123;DHT22;6627;50.920;12.050;2024-02-23T01:51:50;10.70;99.90
13123;DHT22;6627;50.920;12.050;2024-02-23T01:54:20;10.60;99.90
13123;DHT22;6627;50.920;12.050;2024-02-23T01:56:49;10.60;99.90
13123;DHT22;6627;50.920;12.050;2024-02-23T01:59:17;10.50;99.90
13123;DHT22;6627;50.920;12.050;2024-02-23T02:01:45;10.40;99.90
13123;DHT22;6627;50.920;12.050;2024-02-23T02:04:13;10.50;99.90
13123;DHT22;6627;50.920;12.050;2024-02-23T02:06:44;10.30;99.90
13123;DHT22;6627;50.920;12.050;2024-02-23T02:09:12;10.10;99.90
13123;DHT22;6627;50.920;12.050;2024-02-23T02:11:46;10.30;99.90
13123;DHT22;6627;50.920;12.050;2024-02-23T02:14:18;10.20;99.90
13123;DHT22;6627;50.920;12.050;2024-02-23T02:19:14;10.00;99.90
13123;DHT22;6627;50.920;12.050;2024-02-23T02:21:41;9.90;99.90
13123;DHT22;6627;50.920;12.050;2024-02-23T02:26:37;9.80;99.90
13123;DHT22;6627;50.920;12.050;2024-02-23T02:29:07;9.70;99.90
13123;DHT22;6627;50.920;12.050;2024-02-23T02:31:37;9.60;99.90
13123;DHT22;6627;50.920;12.050;2024-02-23T02:36:34;9.60;99.90
13123;DHT22;6627;50.920;12.050;2024-02-23T02:39:01;9.50;99.90
13123;DHT22;6627;50.920;12.050;2024-02-23T02:43:56;9.40;99.90
13123;DHT22;6627;50.920;12.050;2024-02-23T02:46:24;9.40;99.90
13123;DHT22;6627;50.920;12.050;2024-02-23T02:48:52;9.40;99.90
13123;DHT22;6627;50.920;12.050;2024-02-23T02:51:22;9.30;99.90
13123;DHT22;6627;50.920;12.050;2024-02-23T02:53:52;9.30;99.90
13123;DHT22;6627;50.920;12.050;2024-02-23T02:56:22;9.30;99.90
13123;DHT22;6627;50.920;12.050;2024-02-23T02:58:52;9.30;99.90
13123;DHT22;6627;50.920;12.050;2024-02-23T03:01:19;9.20;99.90
13123;DHT22;6627;50.920;12.050;2024-02-23T03:03:46;9.10;99.90
13123;DHT22;6627;50.920;12.050;2024-02-23T03:06:15;9.10;99.90
13123;DHT22;6627;50.920;12.050;2024-02-23T03:08:42;9.10;99.90
13123;DHT22;6627;50.920;12.050;2024-02-23T03:11:09;9.10;99.90
13123;DHT22;6627;50.920;12.050;2024-02-23T03:13:40;9.00;99.90
13123;DHT22;6627;50.920;12.050;2024-02-23T03:16:14;9.00;99.90
13123;DHT22;6627;50.920;12.050;2024-02-23T03:18:45;8.90;99.90
13123;DHT22;6627;50.920;12.050;2024-02-23T03:21:16;8.90;99.90
13123;DHT22;6627;50.920;12.050;2024-02-23T03:23:44;8.90;99.90
13123;DHT22;6627;50.920;12.050;2024-02-23T03:26:11;8.90;99.90
13123;DHT22;6627;50.920;12.050;2024-02-23T03:28:39;8.90;99.90
13123;DHT22;6627;50.920;12.050;2024-02-23T03:33:40;8.70;99.90
13123;DHT22;6627;50.920;12.050;2024-02-23T03:36:09;8.70;99.90
13123;DHT22;6627;50.920;12.050;2024-02-23T03:38:41;8.60;99.90
13123;DHT22;6627;50.920;12.050;2024-02-23T03:43:41;8.60;99.90
13123;DHT22;6627;50.920;12.050;2024-02-23T03:46:08;8.50;99.90
13123;DHT22;6627;50.920;12.050;2024-02-23T03:48:50;8.50;99.90
13123;DHT22;6627;50.920;12.050;2024-02-23T03:56:15;8.40;99.90
13123;DHT22;6627;50.920;12.050;2024-02-23T03:58:45;8.30;99.90
13123;DHT22;6627;50.920;12.050;2024-02-23T04:01:15;8.30;99.90
13123;DHT22;6627;50.920;12.050;2024-02-23T04:03:45;8.20;99.90
13123;DHT22;6627;50.920;12.050;2024-02-23T04:06:13;8.20;99.90
13123;DHT22;6627;50.920;12.050;2024-02-23T04:11:14;8.20;99.90
13123;DHT22;6627;50.920;12.050;2024-02-23T04:13:41;8.20;99.90
13123;DHT22;6627;50.920;12.050;2024-02-23T04:16:08;8.20;99.90
13123;DHT22;6627;50.920;12.050;2024-02-23T04:18:37;8.20;99.90
13123;DHT22;6627;50.920;12.050;2024-02-23T04:21:06;8.10;99.90
13123;DHT22;6627;50.920;12.050;2024-02-23T04:23:35;8.10;99.90
13123;DHT22;6627;50.920;12.050;2024-02-23T04:26:04;8.10;99.90
13123;DHT22;6627;50.920;12.050;2024-02-23T04:28:34;8.00;99.90
13123;DHT22;6627;50.920;12.050;2024-02-23T04:31:01;8.00;99.90
13123;DHT22;6627;50.920;12.050;2024-02-23T04:33:28;8.00;99.90
13123;DHT22;6627;50.920;12.050;2024-02-23T04:35:56;7.90;99.90
13123;DHT22;6627;50.920;12.050;2024-02-23T04:38:23;7.80;99.90
13123;DHT22;6627;50.920;12.050;2024-02-23T04:40:53;7.70;99.90
13123;DHT22;6627;50.920;12.050;2024-02-23T04:43:23;7.80;99.90
13123;DHT22;6627;50.920;12.050;2024-02-23T04:45:55;7.80;99.90
13123;DHT22;6627;50.920;12.050;2024-02-23T04:48:24;7.70;99.90
13123;DHT22;6627;50.920;12.050;2024-02-23T04:51:06;7.70;99.90
13123;DHT22;6627;50.920;12.050;2024-02-23T04:56:04;7.60;99.90
13123;DHT22;6627;50.920;12.050;2024-02-23T04:58:32;7.60;99.90
13123;DHT22;6627;50.920;12.050;2024-02-23T05:03:32;7.60;99.90
13123;DHT22;6627;50.920;12.050;2024-02-23T05:06:02;7.60;99.90
13123;DHT22;6627;50.920;12.050;2024-02-23T05:08:33;7.60;99.90
13123;DHT22;6627;50.920;12.050;2024-02-23T05:13:30;7.60;99.90
13123;DHT22;6627;50.920;12.050;2024-02-23T05:15:57;7.60;99.90
13123;DHT22;6627;50.920;12.050;2024-02-23T05:18:26;7.70;99.90
13123;DHT22;6627;50.920;12.050;2024-02-23T05:20:53;7.60;99.90
13123;DHT22;6627;50.920;12.050;2024-02-23T05:25:53;7.60;99.90
13123;DHT22;6627;50.920;12.050;2024-02-23T05:28:24;7.60;99.90
13123;DHT22;6627;50.920;12.050;2024-02-23T05:30:51;7.60;99.90
13123;DHT22;6627;50.920;12.050;2024-02-23T05:35:48;7.50;99.90
13123;DHT22;6627;50.920;12.050;2024-02-23T05:38:15;7.60;99.90
13123;DHT22;6627;50.920;12.050;2024-02-23T05:40:43;7.50;99.90
13123;DHT22;6627;50.920;12.050;2024-02-23T05:43:27;7.50;99.90
13123;DHT22;6627;50.920;12.050;2024-02-23T05:45:57;7.50;99.90
13123;DHT22;6627;50.920;12.050;2024-02-23T05:48:27;7.50;99.90
13123;DHT22;6627;50.920;12.050;2024-02-23T05:50:59;7.40;99.90
13123;DHT22;6627;50.920;12.050;2024-02-23T05:55:57;7.40;99.90
13123;DHT22;6627;50.920;12.050;2024-02-23T05:58:24;7.40;99.90
13123;DHT22;6627;50.920;12.050;2024-02-23T06:00:51;7.40;99.90
13123;DHT22;6627;50.920;12.050;2024-02-23T06:03:19;7.40;99.90
13123;DHT22;6627;50.920;12.050;2024-02-23T06:05:46;7.40;99.90
13123;DHT22;6627;50.920;12.050;2024-02-23T06:08:16;7.30;99.90
13123;DHT22;6627;50.920;12.050;2024-02-23T06:10:46;7.30;99.90
13123;DHT22;6627;50.920;12.050;2024-02-23T06:13:15;7.30;99.90
13123;DHT22;6627;50.920;12.050;2024-02-23T06:15:45;7.30;99.90
13123;DHT22;6627;50.920;12.050;2024-02-23T06:18:12;7.20;99.90
13123;DHT22;6627;50.920;12.050;2024-02-23T06:20:39;7.30;99.90
13123;DHT22;6627;50.920;12.050;2024-02-23T06:23:07;7.30;99.90
13123;DHT22;6627;50.920;12.050;2024-02-23T06:25:35;7.20;99.90
13123;DHT22;6627;50.920;12.050;2024-02-23T06:28:22;7.20;99.90
13123;DHT22;6627;50.920;12.050;2024-02-23T06:33:36;7.10;99.90
13123;DHT22;6627;50.920;12.050;2024-02-23T06:36:06;7.10;99.90
13123;DHT22;6627;50.920;12.050;2024-02-23T06:38:34;7.10;99.90
13123;DHT22;6627;50.920;12.050;2024-02-23T06:41:03;7.10;99.90
13123;DHT22;6627;50.920;12.050;2024-02-23T06:43:31;7.10;99.90
13123;DHT22;6627;50.920;12.050;2024-02-23T06:46:03;7.10;99.90
13123;DHT22;6627;50.920;12.050;2024-02-23T06:48:31;7.10;99.90
13123;DHT22;6627;50.920;12.050;2024-02-23T06:51:01;7.10;99.90
13123;DHT22;6627;50.920;12.050;2024-02-23T06:53:31;7.00;99.90
13123;DHT22;6627;50.920;12.050;2024-02-23T06:56:01;7.10;99.90
13123;DHT22;6627;50.920;12.050;2024-02-23T06:58:33;7.10;99.90
13123;DHT22;6627;50.920;12.050;2024-02-23T07:01:00;7.10;99.90
13123;DHT22;6627;50.920;12.050;2024-02-23T07:03:29;7.10;99.90
13123;DHT22;6627;50.920;12.050;2024-02-23T07:05:56;7.10;99.90
13123;DHT22;6627;50.920;12.050;2024-02-23T07:08:41;7.00;99.90
13123;DHT22;6627;50.920;12.050;2024-02-23T07:11:24;7.10;99.90
13123;DHT22;6627;50.920;12.050;2024-02-23T07:13:56;7.00;99.90
13123;DHT22;6627;50.920;12.050;2024-02-23T07:16:25;7.00;99.90
13123;DHT22;6627;50.920;12.050;2024-02-23T07:18:55;7.00;99.90
13123;DHT22;6627;50.920;12.050;2024-02-23T07:21:26;7.00;99.90
13123;DHT22;6627;50.920;12.050;2024-02-23T07:23:53;7.00;99.90
13123;DHT22;6627;50.920;12.050;2024-02-23T07:26:20;6.90;99.90
13123;DHT22;6627;50.920;12.050;2024-02-23T07:28:48;7.00;99.90
13123;DHT22;6627;50.920;12.050;2024-02-23T07:31:16;7.00;99.90
13123;DHT22;6627;50.920;12.050;2024-02-23T07:33:46;7.00;99.90
13123;DHT22;6627;50.920;12.050;2024-02-23T07:36:17;7.00;99.90
13123;DHT22;6627;50.920;12.050;2024-02-23T07:38:47;7.00;99.90
13123;DHT22;6627;50.920;12.050;2024-02-23T07:41:17;7.00;99.90
13123;DHT22;6627;50.920;12.050;2024-02-23T07:43:48;7.00;99.90
13123;DHT22;6627;50.920;12.050;2024-02-23T07:46:16;7.00;99.90
13123;DHT22;6627;50.920;12.050;2024-02-23T07:48:44;7.00;99.90
13123;DHT22;6627;50.920;12.050;2024-02-23T07:51:27;7.00;99.90
13123;DHT22;6627;50.920;12.050;2024-02-23T07:53:54;7.00;99.90
13123;DHT22;6627;50.920;12.050;2024-02-23T07:56:24;7.00;99.90
13123;DHT22;6627;50.920;12.050;2024-02-23T07:58:54;7.10;99.90
13123;DHT22;6627;50.920;12.050;2024-02-23T08:01:25;7.10;99.90
13123;DHT22;6627;50.920;12.050;2024-02-23T08:03:57;7.10;99.90
13123;DHT22;6627;50.920;12.050;2024-02-23T08:06:24;7.20;99.90
13123;DHT22;6627;50.920;12.050;2024-02-23T08:08:52;7.20;99.90
13123;DHT22;6627;50.920;12.050;2024-02-23T08:11:19;7.20;99.90
13123;DHT22;6627;50.920;12.050;2024-02-23T08:13:47;7.20;99.90
13123;DHT22;6627;50.920;12.050;2024-02-23T08:16:16;7.30;99.90
13123;DHT22;6627;50.920;12.050;2024-02-23T08:18:47;7.30;99.90
13123;DHT22;6627;50.920;12.050;2024-02-23T08:21:17;7.40;99.90
13123;DHT22;6627;50.920;12.050;2024-02-23T08:23:48;7.40;99.90
13123;DHT22;6627;50.920;12.050;2024-02-23T08:26:18;7.40;99.90
13123;DHT22;6627;50.920;12.050;2024-02-23T08:28:45;7.50;99.90
13123;DHT22;6627;50.920;12.050;2024-02-23T08:31:12;7.50;99.90
13123;DHT22;6627;50.920;12.050;2024-02-23T08:33:40;7.50;99.90
13123;DHT22;6627;50.920;12.050;2024-02-23T08:36:09;7.50;99.90
13123;DHT22;6627;50.920;12.050;2024-02-23T08:38:37;7.50;99.90
13123;DHT22;6627;50.920;12.050;2024-02-23T08:41:07;7.50;99.90
13123;DHT22;6627;50.920;12.050;2024-02-23T08:43:37;7.50;99.90
13123;DHT22;6627;50.920;12.050;2024-02-23T08:46:07;7.50;99.90
13123;DHT22;6627;50.920;12.050;2024-02-23T08:48:36;7.60;99.90
13123;DHT22;6627;50.920;12.050;2024-02-23T08:51:03;7.60;99.90
13123;DHT22;6627;50.920;12.050;2024-02-23T08:53:32;7.60;99.90
13123;DHT22;6627;50.920;12.050;2024-02-23T08:55:59;7.60;99.90
13123;DHT22;6627;50.920;12.050;2024-02-23T08:58:27;7.60;99.90
13123;DHT22;6627;50.920;12.050;2024-02-23T09:01:14;7.70;99.90
13123;DHT22;6627;50.920;12.050;2024-02-23T09:03:44;7.60;99.90
13123;DHT22;6627;50.920;12.050;2024-02-23T09:06:14;7.60;99.90
13123;DHT22;6627;50.920;12.050;2024-02-23T09:08:45;7.50;99.90
13123;DHT22;6627;50.920;12.050;2024-02-23T09:11:15;7.60;99.90
13123;DHT22;6627;50.920;12.050;2024-02-23T09:16:11;7.60;99.90
13123;DHT22;6627;50.920;12.050;2024-02-23T09:18:38;7.70;99.90
13123;DHT22;6627;50.920;12.050;2024-02-23T09:21:05;7.60;99.90
13123;DHT22;6627;50.920;12.050;2024-02-23T09:23:35;7.70;99.90
13123;DHT22;6627;50.920;12.050;2024-02-23T09:26:10;7.70;99.90
13123;DHT22;6627;50.920;12.050;2024-02-23T09:28:39;7.70;99.90
13123;DHT22;6627;50.920;12.050;2024-02-23T09:31:10;7.70;99.90
13123;DHT22;6627;50.920;12.050;2024-02-23T09:33:38;7.70;99.90
13123;DHT22;6627;50.920;12.050;2024-02-23T09:36:05;7.70;99.90
13123;DHT22;6627;50.920;12.050;2024-02-23T09:38:33;7.70;99.90
13123;DHT22;6627;50.920;12.050;2024-02-23T09:41:00;7.70;99.90
13123;DHT22;6627;50.920;12.050;2024-02-23T09:43:29;7.80;99.90
13123;DHT22;6627;50.920;12.050;2024-02-23T09:46:00;7.80;99.90
13123;DHT22;6627;50.920;12.050;2024-02-23T09:48:32;7.80;99.90
13123;DHT22;6627;50.920;12.050;2024-02-23T09:51:05;7.80;99.90
13123;DHT22;6627;50.920;12.050;2024-02-23T09:53:37;7.90;99.90
13123;DHT22;6627;50.920;12.050;2024-02-23T09:58:37;7.90;99.90
13123;DHT22;6627;50.920;12.050;2024-02-23T10:01:06;7.90;99.90
13123;DHT22;6627;50.920;12.050;2024-02-23T10:03:50;7.90;99.90
13123;DHT22;6627;50.920;12.050;2024-02-23T10:06:37;8.00;99.90
13123;DHT22;6627;50.920;12.050;2024-02-23T10:09:07;8.00;99.90
13123;DHT22;6627;50.920;12.050;2024-02-23T10:11:37;8.10;99.90
13123;DHT22;6627;50.920;12.050;2024-02-23T10:14:08;8.10;99.90
13123;DHT22;6627;50.920;12.050;2024-02-23T10:16:37;8.20;99.90
13123;DHT22;6627;50.920;12.050;2024-02-23T10:19:05;8.10;99.90
13123;DHT22;6627;50.920;12.050;2024-02-23T10:21:32;8.10;99.90
13123;DHT22;6627;50.920;12.050;2024-02-23T10:24:00;8.10;99.90
13123;DHT22;6627;50.920;12.050;2024-02-23T10:26:28;8.20;99.90
13123;DHT22;6627;50.920;12.050;2024-02-23T10:28:57;8.20;99.90
13123;DHT22;6627;50.920;12.050;2024-02-23T10:31:30;8.20;99.90
13123;DHT22;6627;50.920;12.050;2024-02-23T10:34:07;8.20;99.90
13123;DHT22;6627;50.920;12.050;2024-02-23T10:36:41;8.20;99.90
13123;DHT22;6627;50.920;12.050;2024-02-23T10:39:12;8.20;99.90
13123;DHT22;6627;50.920;12.050;2024-02-23T10:41:46;8.20;99.90
13123;DHT22;6627;50.920;12.050;2024-02-23T10:44:19;8.20;99.90
13123;DHT22;6627;50.920;12.050;2024-02-23T10:46:50;8.20;99.90
13123;DHT22;6627;50.920;12.050;2024-02-23T10:49:23;8.20;99.90
13123;DHT22;6627;50.920;12.050;2024-02-23T10:51:55;8.20;99.90
13123;DHT22;6627;50.920;12.050;2024-02-23T10:56:57;8.20;99.90
13123;DHT22;6627;50.920;12.050;2024-02-23T10:59:27;8.20;99.90
13123;DHT22;6627;50.920;12.050;2024-02-23T11:01:56;8.20;99.90
13123;DHT22;6627;50.920;12.050;2024-02-23T11:04:26;8.30;99.90
13123;DHT22;6627;50.920;12.050;2024-02-23T11:06:55;8.20;99.90
13123;DHT22;6627;50.920;12.050;2024-02-23T11:09:24;8.20;99.90
13123;DHT22;6627;50.920;12.050;2024-02-23T11:12:11;8.30;99.90
13123;DHT22;6627;50.920;12.050;2024-02-23T11:14:56;8.30;99.90
13123;DHT22;6627;50.920;12.050;2024-02-23T11:17:29;8.20;99.90
13123;DHT22;6627;50.920;12.050;2024-02-23T11:20:03;8.20;99.90
13123;DHT22;6627;50.920;12.050;2024-02-23T11:22:35;8.20;99.90
13123;DHT22;6627;50.920;12.050;2024-02-23T11:25:05;8.20;99.90
13123;DHT22;6627;50.920;12.050;2024-02-23T11:27:34;8.20;99.90
13123;DHT22;6627;50.920;12.050;2024-02-23T11:30:04;8.30;99.90
13123;DHT22;6627;50.920;12.050;2024-02-23T11:32:39;8.20;99.90
13123;DHT22;6627;50.920;12.050;2024-02-23T11:35:10;8.20;99.90
13123;DHT22;6627;50.920;12.050;2024-02-23T11:37:47;8.20;99.90
13123;DHT22;6627;50.920;12.050;2024-02-23T11:40:18;8.30;99.90
13123;DHT22;6627;50.920;12.050;2024-02-23T11:42:48;8.30;99.90
13123;DHT22;6627;50.920;12.050;2024-02-23T11:45:16;8.30;99.90
13123;DHT22;6627;50.920;12.050;2024-02-23T11:48:00;8.30;99.90
13123;DHT22;6627;50.920;12.050;2024-02-23T11:50:28;8.30;99.90
13123;DHT22;6627;50.920;12.050;2024-02-23T11:55:24;8.30;99.90
13123;DHT22;6627;50.920;12.050;2024-02-23T11:57:54;8.30;99.90
13123;DHT22;6627;50.920;12.050;2024-02-23T12:00:23;8.40;99.90
13123;DHT22;6627;50.920;12.050;2024-02-23T12:02:54;8.40;99.90
13123;DHT22;6627;50.920;12.050;2024-02-23T12:05:25;8.40;99.90
13123;DHT22;6627;50.920;12.050;2024-02-23T12:07:53;8.30;99.90
13123;DHT22;6627;50.920;12.050;2024-02-23T12:10:22;8.40;99.90
13123;DHT22;6627;50.920;12.050;2024-02-23T12:12:51;8.40;99.90
13123;DHT22;6627;50.920;12.050;2024-02-23T12:15:19;8.40;99.90
13123;DHT22;6627;50.920;12.050;2024-02-23T12:17:58;8.40;99.90
13123;DHT22;6627;50.920;12.050;2024-02-23T12:20:33;8.40;99.90
13123;DHT22;6627;50.920;12.050;2024-02-23T12:23:01;8.40;99.90
13123;DHT22;6627;50.920;12.050;2024-02-23T12:25:31;8.40;99.90
13123;DHT22;6627;50.920;12.050;2024-02-23T12:27:59;8.40;99.90
13123;DHT22;6627;50.920;12.050;2024-02-23T12:30:27;8.40;99.90
13123;DHT22;6627;50.920;12.050;2024-02-23T12:33:03;8.40;99.90
13123;DHT22;6627;50.920;12.050;2024-02-23T12:35:33;8.40;99.90
13123;DHT22;6627;50.920;12.050;2024-02-23T12:38:01;8.40;99.90
13123;DHT22;6627;50.920;12.050;2024-02-23T12:42:59;8.40;99.90
13123;DHT22;6627;50.920;12.050;2024-02-23T12:45:28;8.40;99.90
13123;DHT22;6627;50.920;12.050;2024-02-23T12:47:57;8.40;99.90
13123;DHT22;6627;50.920;12.050;2024-02-23T12:50:24;8.40;99.90
13123;DHT22;6627;50.920;12.050;2024-02-23T12:52:53;8.40;99.90
13123;DHT22;6627;50.920;12.050;2024-02-23T12:55:20;8.40;99.90
13123;DHT22;6627;50.920;12.050;2024-02-23T12:57:47;8.50;99.90
13123;DHT22;6627;50.920;12.050;2024-02-23T13:00:15;8.50;99.90
13123;DHT22;6627;50.920;12.050;2024-02-23T13:02:46;8.50;99.90
13123;DHT22;6627;50.920;12.050;2024-02-23T13:05:16;8.40;99.90
13123;DHT22;6627;50.920;12.050;2024-02-23T13:10:16;8.40;99.90
13123;DHT22;6627;50.920;12.050;2024-02-23T13:12:45;8.40;99.90
13123;DHT22;6627;50.920;12.050;2024-02-23T13:15:13;8.50;99.90
13123;DHT22;6627;50.920;12.050;2024-02-23T13:17:41;8.40;99.90
13123;DHT22;6627;50.920;12.050;2024-02-23T13:20:10;8.40;99.90
13123;DHT22;6627;50.920;12.050;2024-02-23T13:22:39;8.40;99.90
13123;DHT22;6627;50.920;12.050;2024-02-23T13:25:09;8.40;99.90
13123;DHT22;6627;50.920;12.050;2024-02-23T13:27:40;8.40;99.90
13123;DHT22;6627;50.920;12.050;2024-02-23T13:30:11;8.40;99.90
13123;DHT22;6627;50.920;12.050;2024-02-23T13:32:42;8.30;99.90
13123;DHT22;6627;50.920;12.050;2024-02-23T13:35:10;8.30;99.90
13123;DHT22;6627;50.920;12.050;2024-02-23T13:40:06;8.20;99.90
13123;DHT22;6627;50.920;12.050;2024-02-23T13:42:35;8.20;99.90
13123;DHT22;6627;50.920;12.050;2024-02-23T13:45:09;8.20;99.90
13123;DHT22;6627;50.920;12.050;2024-02-23T13:47:42;8.20;99.90
13123;DHT22;6627;50.920;12.050;2024-02-23T13:50:24;8.20;99.90
13123;DHT22;6627;50.920;12.050;2024-02-23T13:52:54;8.20;99.90
13123;DHT22;6627;50.920;12.050;2024-02-23T13:55:24;8.20;99.90
13123;DHT22;6627;50.920;12.050;2024-02-23T14:00:21;8.10;99.90
13123;DHT22;6627;50.920;12.050;2024-02-23T14:02:48;8.10;99.90
13123;DHT22;6627;50.920;12.050;2024-02-23T14:05:16;8.10;99.90
13123;DHT22;6627;50.920;12.050;2024-02-23T14:07:44;8.10;99.90
13123;DHT22;6627;50.920;12.050;2024-02-23T14:10:14;8.10;99.90
13123;DHT22;6627;50.920;12.050;2024-02-23T14:12:42;8.10;99.90
13123;DHT22;6627;50.920;12.050;2024-02-23T14:15:12;8.20;99.90
13123;DHT22;6627;50.920;12.050;2024-02-23T14:17:42;8.20;99.90
13123;DHT22;6627;50.920;12.050;2024-02-23T14:20:26;8.20;99.90
13123;DHT22;6627;50.920;12.050;2024-02-23T14:22:54;8.10;99.90
13123;DHT22;6627;50.920;12.050;2024-02-23T14:25:21;8.20;99.90
13123;DHT22;6627;50.920;12.050;2024-02-23T14:27:49;8.20;99.90
13123;DHT22;6627;50.920;12.050;2024-02-23T14:30:19;8.10;99.90
13123;DHT22;6627;50.920;12.050;2024-02-23T14:32:50;8.20;99.90
13123;DHT22;6627;50.920;12.050;2024-02-23T14:35:20;8.20;99.90
13123;DHT22;6627;50.920;12.050;2024-02-23T14:37:50;8.20;99.90
13123;DHT22;6627;50.920;12.050;2024-02-23T14:40:17;8.20;99.90
13123;DHT22;6627;50.920;12.050;2024-02-23T14:42:45;8.20;99.90
13123;DHT22;6627;50.920;12.050;2024-02-23T14:45:29;8.20;99.90
13123;DHT22;6627;50.920;12.050;2024-02-23T14:47:58;8.20;99.90
13123;DHT22;6627;50.920;12.050;2024-02-23T14:50:44;8.10;99.90
13123;DHT22;6627;50.920;12.050;2024-02-23T14:53:12;8.10;99.90
13123;DHT22;6627;50.920;12.050;2024-02-23T14:55:42;8.10;99.90
13123;DHT22;6627;50.920;12.050;2024-02-23T14:58:11;8.10;99.90
13123;DHT22;6627;50.920;12.050;2024-02-23T15:00:39;8.10;99.90
13123;DHT22;6627;50.920;12.050;2024-02-23T15:03:09;8.10;99.90
13123;DHT22;6627;50.920;12.050;2024-02-23T15:05:36;8.10;99.90
13123;DHT22;6627;50.920;12.050;2024-02-23T15:10:32;8.00;99.90
13123;DHT22;6627;50.920;12.050;2024-02-23T15:13:15;8.00;99.90
13123;DHT22;6627;50.920;12.050;2024-02-23T15:15:43;8.00;99.90
13123;DHT22;6627;50.920;12.050;2024-02-23T15:18:14;7.90;99.90
13123;DHT22;6627;50.920;12.050;2024-02-23T15:23:10;7.90;99.90
13123;DHT22;6627;50.920;12.050;2024-02-23T15:25:37;7.90;99.90
13123;DHT22;6627;50.920;12.050;2024-02-23T15:28:05;8.00;99.90
13123;DHT22;6627;50.920;12.050;2024-02-23T15:30:33;7.90;99.90
13123;DHT22;6627;50.920;12.050;2024-02-23T15:33:00;7.90;99.90
13123;DHT22;6627;50.920;12.050;2024-02-23T15:35:32;7.90;99.90
13123;DHT22;6627;50.920;12.050;2024-02-23T15:38:01;7.90;99.90
13123;DHT22;6627;50.920;12.050;2024-02-23T15:40:31;7.90;99.90
13123;DHT22;6627;50.920;12.050;2024-02-23T15:42:59;7.90;99.90
13123;DHT22;6627;50.920;12.050;2024-02-23T15:45:27;7.90;99.90
13123;DHT22;6627;50.920;12.050;2024-02-23T15:47:54;7.90;99.90
13123;DHT22;6627;50.920;12.050;2024-02-23T15:52:53;7.80;99.90
13123;DHT22;6627;50.920;12.050;2024-02-23T15:55:21;7.80;99.90
13123;DHT22;6627;50.920;12.050;2024-02-23T15:57:50;7.80;99.90
13123;DHT22;6627;50.920;12.050;2024-02-23T16:00:20;7.80;99.90
13123;DHT22;6627;50.920;12.050;2024-02-23T16:02:50;7.80;99.90
13123;DHT22;6627;50.920;12.050;2024-02-23T16:05:20;7.70;99.90
13123;DHT22;6627;50.920;12.050;2024-02-23T16:07:47;7.70;99.90
13123;DHT22;6627;50.920;12.050;2024-02-23T16:10:17;7.70;99.90
13123;DHT22;6627;50.920;12.050;2024-02-23T16:12:49;7.70;99.90
13123;DHT22;6627;50.920;12.050;2024-02-23T16:15:17;7.70;99.90
13123;DHT22;6627;50.920;12.050;2024-02-23T16:18:04;7.70;99.90
13123;DHT22;6627;50.920;12.050;2024-02-23T16:20:35;7.70;99.90
13123;DHT22;6627;50.920;12.050;2024-02-23T16:23:05;7.40;99.90
13123;DHT22;6627;50.920;12.050;2024-02-23T16:25:37;7.50;99.90
13123;DHT22;6627;50.920;12.050;2024-02-23T16:28:07;7.60;99.90
13123;DHT22;6627;50.920;12.050;2024-02-23T16:30:35;7.50;99.90
13123;DHT22;6627;50.920;12.050;2024-02-23T16:33:05;7.40;99.90
13123;DHT22;6627;50.920;12.050;2024-02-23T16:35:33;7.40;99.90
13123;DHT22;6627;50.920;12.050;2024-02-23T16:38:00;7.20;99.90
13123;DHT22;6627;50.920;12.050;2024-02-23T16:40:29;7.10;99.90
13123;DHT22;6627;50.920;12.050;2024-02-23T16:43:01;7.00;99.90
13123;DHT22;6627;50.920;12.050;2024-02-23T16:45:44;7.10;99.90
13123;DHT22;6627;50.920;12.050;2024-02-23T16:48:15;7.10;99.90
13123;DHT22;6627;50.920;12.050;2024-02-23T16:50:43;6.90;99.90
13123;DHT22;6627;50.920;12.050;2024-02-23T16:53:12;6.90;99.90
13123;DHT22;6627;50.920;12.050;2024-02-23T16:55:39;6.80;99.90
13123;DHT22;6627;50.920;12.050;2024-02-23T16:58:25;6.70;99.90
13123;DHT22;6627;50.920;12.050;2024-02-23T17:00:55;6.70;99.90
13123;DHT22;6627;50.920;12.050;2024-02-23T17:03:25;6.50;99.90
13123;DHT22;6627;50.920;12.050;2024-02-23T17:05:53;6.60;99.90
13123;DHT22;6627;50.920;12.050;2024-02-23T17:08:23;6.30;99.90
13123;DHT22;6627;50.920;12.050;2024-02-23T17:10:52;6.20;99.90
13123;DHT22;6627;50.920;12.050;2024-02-23T17:13:19;6.10;99.90
13123;DHT22;6627;50.920;12.050;2024-02-23T17:15:48;6.20;99.90
13123;DHT22;6627;50.920;12.050;2024-02-23T17:18:15;6.20;99.90
13123;DHT22;6627;50.920;12.050;2024-02-23T17:20:42;6.20;99.90
13123;DHT22;6627;50.920;12.050;2024-02-23T17:23:29;6.20;99.90
13123;DHT22;6627;50.920;12.050;2024-02-23T17:25:59;6.20;99.90
13123;DHT22;6627;50.920;12.050;2024-02-23T17:28:29;6.30;99.90
13123;DHT22;6627;50.920;12.050;2024-02-23T17:31:00;6.20;99.90